Time;durP1;ratioP1;P1;durP2;ratioP2;P2;SDS_P1;SDS_P2;PMS_P1;PMS_P2;Temp;Humidity;BMP_temperature;BMP_pressure;BME280_temperature;BME280_humidity;BME280_pressure;Samples;Min_cycle;Max_cycle;Signal;HPM_P1;HPM_P2
2024/03/12 00:00:23;;;;;;;12.82;6.47;;;;;;;;;;5839665;28;20049;-81
2024/03/12 00:03:15;;;;;;;6.15;5.55;;;;;;;;;;5839605;28;20063;-81
2024/03/12 00:06:06;;;;;;;6.80;4.90;;;;;;;;;;5839614;28;20052;-81
2024/03/12 00:08:56;;;;;;;7.40;6.45;;;;;;;;;;5841077;28;20176;-81
2024/03/12 00:11:48;;;;;;;6.90;6.15;;;;;;;;;;5823024;28;20045;-81
2024/03/12 00:14:40;;;;;;;4.10;3.70;;;;;;;;;;5840935;28;20049;-81
2024/03/12 00:17:32;;;;;;;7.07;6.10;;;;;;;;;;5823127;28;20056;-82
2024/03/12 00:20:43;;;;;;;5.03;4.53;;;;;;;;;;5840683;28;20044;-81
2024/03/12 00:23:33;;;;;;;5.55;4.88;;;;;;;;;;5839261;28;20057;-82
2024/03/12 00:26:24;;;;;;;6.38;4.60;;;;;;;;;;5822704;28;20050;-83
2024/03/12 00:29:16;;;;;;;10.52;4.50;;;;;;;;;;5839014;28;20045;-82
2024/03/12 00:32:07;;;;;;;4.97;4.47;;;;;;;;;;5820252;28;251265;-82
2024/03/12 00:34:58;;;;;;;9.55;5.55;;;;;;;;;;5850762;28;20045;-82
2024/03/12 00:37:52;;;;;;;6.32;4.60;;;;;;;;;;5840112;28;20038;-83
2024/03/12 00:40:44;;;;;;;8.48;7.05;;;;;;;;;;5840104;28;20049;-83
2024/03/12 00:43:35;;;;;;;4.75;4.10;;;;;;;;;;5840096;28;20052;-83
2024/03/12 00:46:26;;;;;;;5.72;5.05;;;;;;;;;;5839907;28;20189;-83
2024/03/12 00:49:17;;;;;;;6.38;3.75;;;;;;;;;;5839687;28;20053;-83
2024/03/12 00:52:08;;;;;;;17.20;5.70;;;;;;;;;;5839704;28;20046;-83
2024/03/12 00:55:00;;;;;;;5.88;5.20;;;;;;;;;;5823867;28;20053;-84
2024/03/12 00:57:52;;;;;;;8.27;4.28;;;;;;;;;;5839704;28;20171;-84
2024/03/12 01:00:45;;;;;;;7.55;4.13;;;;;;;;;;5839513;28;20049;-84
2024/03/12 01:03:36;;;;;;;5.03;4.25;;;;;;;;;;5839371;28;20057;-83
2024/03/12 01:06:28;;;;;;;5.15;4.65;;;;;;;;;;5839617;28;20068;-84
2024/03/12 01:09:20;;;;;;;5.60;5.03;;;;;;;;;;5823673;28;20046;-84
2024/03/12 01:12:13;;;;;;;5.43;4.18;;;;;;;;;;5823292;28;20094;-84
2024/03/12 01:15:08;;;;;;;4.47;3.88;;;;;;;;;;5823390;28;20049;-84
2024/03/12 01:17:59;;;;;;;5.78;4.15;;;;;;;;;;5841013;28;20057;-84
2024/03/12 01:20:50;;;;;;;5.93;5.20;;;;;;;;;;5822913;28;20049;-83
2024/03/12 01:23:41;;;;;;;9.30;4.07;;;;;;;;;;5840672;28;20423;-84
2024/03/12 01:26:32;;;;;;;9.10;4.90;;;;;;;;;;5839689;28;20046;-84
2024/03/12 01:29:24;;;;;;;6.85;5.72;;;;;;;;;;5839730;28;20558;-84
2024/03/12 01:32:15;;;;;;;5.28;4.28;;;;;;;;;;5840609;28;20149;-84
2024/03/12 01:35:09;;;;;;;5.47;4.85;;;;;;;;;;5840604;28;20195;-84
2024/03/12 01:38:00;;;;;;;4.38;3.70;;;;;;;;;;5839668;28;20047;-84
2024/03/12 01:40:51;;;;;;;6.13;4.72;;;;;;;;;;5840446;28;20041;-85
2024/03/12 01:43:42;;;;;;;5.00;4.47;;;;;;;;;;5838737;28;20048;-85
2024/03/12 01:46:35;;;;;;;6.70;4.93;;;;;;;;;;5838662;28;20570;-85
2024/03/12 01:49:27;;;;;;;8.50;5.43;;;;;;;;;;5822190;28;20054;-85
2024/03/12 01:52:22;;;;;;;4.75;4.20;;;;;;;;;;5840031;28;20046;-84
2024/03/12 01:55:14;;;;;;;5.63;4.57;;;;;;;;;;5822981;28;20061;-85
2024/03/12 01:58:06;;;;;;;5.20;4.70;;;;;;;;;;5838546;28;20046;-83
2024/03/12 02:00:58;;;;;;;7.32;3.78;;;;;;;;;;5838799;28;20412;-85
2024/03/12 02:03:51;;;;;;;12.15;6.35;;;;;;;;;;5839556;28;20053;-84
2024/03/12 02:06:43;;;;;;;5.22;4.72;;;;;;;;;;5838316;28;20053;-84
2024/03/12 02:09:33;;;;;;;4.68;3.88;;;;;;;;;;5838108;28;20052;-85
2024/03/12 02:12:24;;;;;;;6.32;5.45;;;;;;;;;;5838272;28;20050;-84
2024/03/12 02:15:17;;;;;;;6.35;5.22;;;;;;;;;;5838123;28;20112;-85
2024/03/12 02:18:09;;;;;;;5.65;5.13;;;;;;;;;;5838148;28;20408;-84
2024/03/12 02:21:00;;;;;;;5.18;4.57;;;;;;;;;;5838734;28;20065;-84
2024/03/12 02:23:53;;;;;;;10.43;5.95;;;;;;;;;;5839484;28;20045;-84
2024/03/12 02:26:44;;;;;;;5.75;3.80;;;;;;;;;;5837950;28;20042;-84
2024/03/12 02:29:35;;;;;;;8.65;5.22;;;;;;;;;;5838158;28;20049;-84
2024/03/12 02:32:26;;;;;;;7.68;4.60;;;;;;;;;;5821216;28;20049;-84
2024/03/12 02:35:17;;;;;;;6.53;4.85;;;;;;;;;;5838211;28;20561;-84
2024/03/12 02:38:08;;;;;;;6.90;4.15;;;;;;;;;;5837961;28;20073;-84
2024/03/12 02:40:59;;;;;;;7.38;6.63;;;;;;;;;;5838448;28;20125;-84
2024/03/12 02:43:51;;;;;;;7.90;6.43;;;;;;;;;;5837729;28;20046;-84
2024/03/12 02:46:43;;;;;;;8.30;6.95;;;;;;;;;;5837906;28;20511;-84
2024/03/12 02:49:35;;;;;;;6.10;4.75;;;;;;;;;;5837688;28;20818;-84
2024/03/12 02:52:26;;;;;;;8.98;7.20;;;;;;;;;;5837607;28;20038;-84
2024/03/12 02:55:19;;;;;;;6.55;5.78;;;;;;;;;;5837635;28;20095;-83
2024/03/12 02:58:09;;;;;;;8.73;5.53;;;;;;;;;;5837836;28;20053;-84
2024/03/12 03:01:00;;;;;;;8.85;6.18;;;;;;;;;;5839451;28;20054;-84
2024/03/12 03:03:52;;;;;;;7.80;5.05;;;;;;;;;;5839153;28;20050;-84
2024/03/12 03:06:43;;;;;;;22.98;4.97;;;;;;;;;;5838524;28;20057;-83
2024/03/12 03:09:34;;;;;;;13.65;6.72;;;;;;;;;;5838729;28;20260;-83
2024/03/12 03:12:25;;;;;;;6.75;5.90;;;;;;;;;;5821056;28;20076;-83
2024/03/12 03:15:16;;;;;;;11.15;5.63;;;;;;;;;;5837943;28;20542;-83
2024/03/12 03:18:07;;;;;;;7.95;6.65;;;;;;;;;;5838662;28;20512;-83
2024/03/12 03:20:58;;;;;;;11.73;6.70;;;;;;;;;;5821834;28;20077;-84
2024/03/12 03:23:49;;;;;;;18.05;7.20;;;;;;;;;;5838702;28;20547;-84
2024/03/12 03:26:40;;;;;;;22.30;7.03;;;;;;;;;;5824155;28;20045;-84
2024/03/12 03:29:33;;;;;;;9.60;6.15;;;;;;;;;;5841426;28;20444;-84
2024/03/12 03:32:24;;;;;;;15.65;4.63;;;;;;;;;;5825212;28;20052;-83
2024/03/12 03:35:17;;;;;;;6.93;5.70;;;;;;;;;;5841495;28;20412;-83
2024/03/12 03:38:09;;;;;;;15.43;6.03;;;;;;;;;;5841346;28;20522;-83
2024/03/12 03:41:00;;;;;;;9.00;6.72;;;;;;;;;;5843005;28;20061;-83
2024/03/12 03:43:51;;;;;;;8.85;5.22;;;;;;;;;;5842795;28;20048;-83
2024/03/12 03:46:42;;;;;;;12.27;7.07;;;;;;;;;;5841269;28;20038;-83
2024/03/12 03:49:33;;;;;;;9.82;6.28;;;;;;;;;;5841058;28;20052;-83
2024/03/12 03:52:24;;;;;;;11.80;7.68;;;;;;;;;;5840755;28;20049;-83
2024/03/12 03:55:15;;;;;;;7.10;5.97;;;;;;;;;;5841104;28;20050;-83
2024/03/12 03:58:06;;;;;;;11.13;6.32;;;;;;;;;;5841031;28;20120;-82
2024/03/12 04:00:57;;;;;;;11.75;6.50;;;;;;;;;;5842626;28;20578;-83
2024/03/12 04:03:48;;;;;;;26.17;9.57;;;;;;;;;;5840855;28;20045;-83
2024/03/12 04:06:40;;;;;;;17.25;8.00;;;;;;;;;;5824463;28;20055;-83
2024/03/12 04:09:31;;;;;;;42.20;7.75;;;;;;;;;;5824635;28;20096;-83
2024/03/12 04:12:22;;;;;;;9.32;6.35;;;;;;;;;;5840707;28;20132;-83
2024/03/12 04:15:14;;;;;;;36.38;8.05;;;;;;;;;;5824384;28;20551;-83
2024/03/12 04:18:05;;;;;;;10.27;8.07;;;;;;;;;;5840667;28;20046;-83
2024/03/12 04:20:56;;;;;;;7.68;5.28;;;;;;;;;;5824778;28;20054;-83
2024/03/12 04:23:47;;;;;;;12.38;7.75;;;;;;;;;;5840457;28;20054;-83
2024/03/12 04:26:39;;;;;;;16.80;6.18;;;;;;;;;;5840065;28;20518;-83
2024/03/12 04:29:30;;;;;;;7.13;6.05;;;;;;;;;;5841591;28;20046;-84
2024/03/12 04:32:20;;;;;;;6.90;5.28;;;;;;;;;;5841457;28;20268;-83
2024/03/12 04:35:12;;;;;;;9.07;7.53;;;;;;;;;;5823897;28;20068;-83
2024/03/12 04:38:04;;;;;;;24.50;5.78;;;;;;;;;;5840059;28;20050;-82
2024/03/12 04:40:54;;;;;;;68.88;8.75;;;;;;;;;;5841640;28;20056;-83
2024/03/12 04:43:46;;;;;;;21.38;7.03;;;;;;;;;;5840142;28;20061;-83
2024/03/12 04:46:42;;;;;;;30.85;6.10;;;;;;;;;;5841190;28;20050;-84
2024/03/12 04:49:33;;;;;;;48.85;8.38;;;;;;;;;;5840100;28;20096;-83
2024/03/12 04:52:23;;;;;;;15.55;6.68;;;;;;;;;;5823639;28;20466;-83
2024/03/12 04:55:14;;;;;;;6.93;6.30;;;;;;;;;;5839817;28;20061;-83
2024/03/12 04:58:05;;;;;;;34.30;6.57;;;;;;;;;;5839590;28;20595;-83
2024/03/12 05:00:56;;;;;;;18.83;5.95;;;;;;;;;;5841360;28;20046;-83
2024/03/12 05:03:47;;;;;;;29.33;7.63;;;;;;;;;;5839411;28;20472;-83
2024/03/12 05:06:39;;;;;;;8.32;6.28;;;;;;;;;;5839772;28;20045;-83
2024/03/12 05:09:29;;;;;;;7.75;6.32;;;;;;;;;;5840275;28;20057;-83
2024/03/12 05:12:20;;;;;;;7.90;6.43;;;;;;;;;;5839908;28;20149;-84
2024/03/12 05:15:11;;;;;;;10.48;5.75;;;;;;;;;;5839204;28;20056;-83
2024/03/12 05:18:02;;;;;;;6.88;5.88;;;;;;;;;;5823149;28;20053;-84
2024/03/12 05:20:53;;;;;;;18.25;6.88;;;;;;;;;;5839550;28;20090;-84
2024/03/12 05:23:44;;;;;;;15.00;7.97;;;;;;;;;;5839268;28;20042;-84
2024/03/12 05:26:43;;;;;;;6.00;5.38;;;;;;;;;;5838889;28;20416;-84
2024/03/12 05:29:42;;;;;;;7.93;6.10;;;;;;;;;;5823796;28;20050;-84
2024/03/12 05:32:33;;;;;;;9.90;5.85;;;;;;;;;;5839927;28;20049;-84
2024/03/12 05:35:29;;;;;;;16.67;6.72;;;;;;;;;;5840107;28;20063;-84
2024/03/12 05:38:33;;;;;;;7.07;4.65;;;;;;;;;;5839707;28;20046;-84
2024/03/12 05:41:29;;;;;;;29.55;6.55;;;;;;;;;;5838763;28;20046;-83
2024/03/12 05:50:40;;;;;;;26.20;6.18;;;;;;;;;;5838735;28;20048;-84
2024/03/12 05:53:32;;;;;;;8.88;5.55;;;;;;;;;;5838329;28;20053;-84
2024/03/12 05:56:23;;;;;;;28.88;5.00;;;;;;;;;;5839877;28;20050;-84
2024/03/12 05:59:14;;;;;;;6.07;5.30;;;;;;;;;;5822470;28;20049;-84
2024/03/12 06:02:05;;;;;;;10.40;6.22;;;;;;;;;;5839587;28;20056;-84
2024/03/12 06:04:56;;;;;;;20.30;7.32;;;;;;;;;;5838880;28;20050;-84
2024/03/12 06:07:52;;;;;;;14.13;9.65;;;;;;;;;;5838359;28;20052;-84
2024/03/12 06:10:43;;;;;;;16.52;7.13;;;;;;;;;;5839785;28;20065;-84
2024/03/12 06:13:33;;;;;;;15.77;6.68;;;;;;;;;;5839528;28;20045;-83
2024/03/12 06:16:25;;;;;;;15.77;6.57;;;;;;;;;;5839515;28;20045;-84
2024/03/12 06:19:15;;;;;;;25.63;6.70;;;;;;;;;;5839452;28;20065;-84
2024/03/12 06:22:08;;;;;;;9.23;7.43;;;;;;;;;;5838113;28;20081;-83
2024/03/12 06:25:00;;;;;;;9.70;7.18;;;;;;;;;;5839418;28;20053;-84
2024/03/12 06:27:52;;;;;;;67.40;8.70;;;;;;;;;;5838404;28;20147;-83
2024/03/12 06:30:43;;;;;;;10.65;6.20;;;;;;;;;;5840414;28;20046;-84
2024/03/12 06:33:34;;;;;;;27.40;5.25;;;;;;;;;;5837932;28;20384;-83
2024/03/12 06:36:26;;;;;;;17.38;5.53;;;;;;;;;;5833020;28;20042;-84
2024/03/12 06:39:17;;;;;;;21.85;5.57;;;;;;;;;;5837716;28;20076;-83
2024/03/12 06:42:12;;;;;;;5.68;5.18;;;;;;;;;;5837769;28;20054;-83
2024/03/12 06:45:03;;;;;;;8.57;4.75;;;;;;;;;;5838396;28;20046;-83
2024/03/12 06:48:00;;;;;;;7.97;6.25;;;;;;;;;;5838241;28;20049;-83
2024/03/12 06:50:51;;;;;;;6.30;4.75;;;;;;;;;;5862528;28;20063;-83
2024/03/12 06:53:43;;;;;;;5.55;4.88;;;;;;;;;;5860707;28;20415;-83
2024/03/12 06:56:41;;;;;;;19.05;6.50;;;;;;;;;;5877014;28;20045;-83
2024/03/12 06:59:35;;;;;;;7.25;5.60;;;;;;;;;;5860983;28;20130;-83
2024/03/12 07:02:25;;;;;;;46.03;7.10;;;;;;;;;;5866155;28;20049;-84
2024/03/12 07:05:16;;;;;;;5.35;4.82;;;;;;;;;;5865509;28;20049;-83
2024/03/12 07:08:10;;;;;;;8.77;5.68;;;;;;;;;;5881681;28;20068;-82
2024/03/12 07:11:01;;;;;;;12.27;6.25;;;;;;;;;;5848908;28;20057;-83
2024/03/12 07:14:01;;;;;;;5.80;4.75;;;;;;;;;;5882083;28;20490;-84
2024/03/12 07:16:52;;;;;;;8.70;6.25;;;;;;;;;;5834821;28;20117;-84
2024/03/12 07:19:43;;;;;;;5.28;4.40;;;;;;;;;;5863176;28;20045;-84
2024/03/12 07:22:36;;;;;;;8.93;6.53;;;;;;;;;;5864793;28;20045;-83
2024/03/12 07:25:27;;;;;;;7.20;5.30;;;;;;;;;;5864095;28;20048;-83
2024/03/12 07:28:18;;;;;;;7.93;5.47;;;;;;;;;;5864514;28;20045;-83
2024/03/12 07:31:15;;;;;;;7.07;4.35;;;;;;;;;;5880434;28;20057;-83
2024/03/12 07:34:06;;;;;;;6.13;4.32;;;;;;;;;;5864776;28;20096;-84
2024/03/12 07:37:01;;;;;;;7.00;3.72;;;;;;;;;;5864678;28;20049;-84
2024/03/12 07:39:52;;;;;;;7.60;4.85;;;;;;;;;;5856942;28;20411;-84
2024/03/12 07:42:43;;;;;;;10.55;6.68;;;;;;;;;;5865617;28;20042;-84
2024/03/12 07:45:35;;;;;;;5.35;4.25;;;;;;;;;;5864302;28;20053;-84
2024/03/12 07:48:26;;;;;;;6.82;4.18;;;;;;;;;;5864015;28;20037;-84
2024/03/12 07:51:18;;;;;;;7.00;3.83;;;;;;;;;;5864173;28;20068;-84
2024/03/12 07:54:09;;;;;;;9.25;5.55;;;;;;;;;;5864103;28;20053;-83
2024/03/12 07:56:59;;;;;;;5.22;4.63;;;;;;;;;;5864270;28;20057;-84
2024/03/12 07:59:52;;;;;;;5.22;4.70;;;;;;;;;;5863927;28;20049;-83
2024/03/12 08:02:43;;;;;;;6.38;4.68;;;;;;;;;;5831321;28;20738;-84
2024/03/12 08:05:33;;;;;;;5.00;4.50;;;;;;;;;;5863897;28;20119;-83
2024/03/12 08:08:25;;;;;;;6.22;5.00;;;;;;;;;;5863674;28;20554;-83
2024/03/12 08:11:19;;;;;;;6.45;5.20;;;;;;;;;;5880069;28;20057;-83
2024/03/12 08:14:10;;;;;;;5.68;4.90;;;;;;;;;;5863855;28;20415;-83
2024/03/12 08:17:04;;;;;;;5.57;4.55;;;;;;;;;;5865585;28;20057;-83
2024/03/12 08:19:57;;;;;;;6.03;5.43;;;;;;;;;;5864878;28;20041;-84
2024/03/12 08:22:48;;;;;;;7.85;5.13;;;;;;;;;;5831540;28;20478;-83
2024/03/12 08:25:39;;;;;;;5.78;4.93;;;;;;;;;;5864876;28;20061;-83
2024/03/12 08:28:46;;;;;;;13.90;5.30;;;;;;;;;;5863793;28;20037;-83
2024/03/12 08:31:38;;;;;;;13.00;5.63;;;;;;;;;;5863164;28;20041;-83
2024/03/12 08:34:41;;;;;;;7.13;5.07;;;;;;;;;;5863615;28;20415;-83
2024/03/12 08:37:33;;;;;;;5.80;4.93;;;;;;;;;;5863294;28;20595;-83
2024/03/12 08:40:28;;;;;;;7.57;5.80;;;;;;;;;;5863232;28;20115;-83
2024/03/12 08:43:21;;;;;;;26.10;15.05;;;;;;;;;;5863072;28;20052;-83
2024/03/12 08:46:12;;;;;;;504.85;291.70;;;;;;;;;;5864813;28;20049;-83
2024/03/12 08:49:05;;;;;;;31.58;18.27;;;;;;;;;;5864503;28;20562;-82
2024/03/12 08:51:56;;;;;;;13.38;7.43;;;;;;;;;;5864732;28;20052;-83
2024/03/12 08:54:47;;;;;;;11.23;6.13;;;;;;;;;;5862937;28;20046;-83
2024/03/12 08:57:40;;;;;;;7.75;5.38;;;;;;;;;;5863976;28;20482;-83
2024/03/12 09:00:32;;;;;;;10.30;6.43;;;;;;;;;;5863042;28;20191;-83
2024/03/12 09:03:22;;;;;;;13.05;7.22;;;;;;;;;;5862707;28;20045;-83
2024/03/12 09:06:13;;;;;;;10.52;7.47;;;;;;;;;;5862809;28;20191;-83
2024/03/12 09:09:05;;;;;;;12.57;8.57;;;;;;;;;;5864005;28;20061;-82
2024/03/12 09:11:59;;;;;;;65.97;33.67;;;;;;;;;;5879257;28;20048;-83
2024/03/12 09:14:52;;;;;;;9.73;7.30;;;;;;;;;;5863361;28;20045;-83
2024/03/12 09:17:43;;;;;;;60.20;23.67;;;;;;;;;;5862557;28;20570;-83
2024/03/12 09:20:36;;;;;;;38.13;16.52;;;;;;;;;;5845773;28;20041;-83
2024/03/12 09:23:29;;;;;;;70.65;31.10;;;;;;;;;;5861907;28;20183;-83
2024/03/12 09:26:20;;;;;;;45.47;23.42;;;;;;;;;;5879012;28;20053;-82
2024/03/12 09:29:13;;;;;;;129.15;65.18;;;;;;;;;;5861999;28;20061;-83
2024/03/12 09:32:05;;;;;;;66.97;37.53;;;;;;;;;;5862192;28;20187;-83
2024/03/12 09:34:56;;;;;;;92.00;51.92;;;;;;;;;;5862659;28;20041;-82
2024/03/12 09:37:48;;;;;;;11.65;8.07;;;;;;;;;;5861775;28;20053;-83
2024/03/12 09:40:42;;;;;;;15.35;10.15;;;;;;;;;;5861857;28;20050;-83
2024/03/12 09:43:35;;;;;;;10.40;7.22;;;;;;;;;;5861945;28;20396;-82
2024/03/12 09:46:26;;;;;;;7.40;4.72;;;;;;;;;;5861961;28;20041;-83
2024/03/12 09:49:20;;;;;;;7.53;5.53;;;;;;;;;;5861823;28;20274;-82
2024/03/12 09:52:11;;;;;;;17.40;8.18;;;;;;;;;;5861356;28;20056;-82
2024/03/12 09:55:02;;;;;;;11.63;8.60;;;;;;;;;;5877921;28;20045;-82
2024/03/12 09:57:54;;;;;;;18.88;8.95;;;;;;;;;;5861749;28;20059;-83
2024/03/12 10:00:45;;;;;;;46.75;22.30;;;;;;;;;;5861881;28;20415;-83
2024/03/12 10:03:36;;;;;;;51.05;25.08;;;;;;;;;;5863044;28;20071;-82
2024/03/12 10:06:28;;;;;;;33.33;18.30;;;;;;;;;;5862485;28;20076;-83
2024/03/12 10:09:19;;;;;;;29.40;13.68;;;;;;;;;;5861685;28;20056;-82
2024/03/12 10:12:10;;;;;;;10.75;6.68;;;;;;;;;;5861297;28;20056;-82
2024/03/12 10:15:01;;;;;;;116.40;52.45;;;;;;;;;;5860952;28;20073;-80
2024/03/12 10:17:59;;;;;;;14.63;9.00;;;;;;;;;;5861821;28;20578;-82
2024/03/12 10:20:58;;;;;;;11.68;5.65;;;;;;;;;;5861300;28;20483;-82
2024/03/12 10:23:49;;;;;;;23.58;11.43;;;;;;;;;;5861254;28;20044;-82
2024/03/12 10:26:44;;;;;;;10.45;6.97;;;;;;;;;;5862502;28;20049;-82
2024/03/12 10:29:36;;;;;;;12.80;8.23;;;;;;;;;;5862761;28;20045;-82
2024/03/12 10:32:31;;;;;;;10.68;6.90;;;;;;;;;;5860835;28;20041;-82
2024/03/12 10:35:23;;;;;;;28.83;16.35;;;;;;;;;;5863924;28;20049;-82
2024/03/12 10:38:27;;;;;;;8.40;5.13;;;;;;;;;;5849674;28;20054;-82
2024/03/12 10:41:20;;;;;;;22.45;14.10;;;;;;;;;;5866069;28;20460;-82
2024/03/12 10:44:12;;;;;;;11.15;8.27;;;;;;;;;;5866240;28;20053;-81
2024/03/12 10:47:04;;;;;;;18.23;7.72;;;;;;;;;;5867650;28;20053;-81
2024/03/12 10:49:56;;;;;;;11.40;6.53;;;;;;;;;;5866409;28;20595;-82
2024/03/12 10:52:47;;;;;;;10.25;5.63;;;;;;;;;;5867439;28;20052;-82
2024/03/12 10:55:38;;;;;;;13.90;6.03;;;;;;;;;;5866802;28;20046;-82
2024/03/12 10:58:31;;;;;;;7.05;4.47;;;;;;;;;;5866237;28;20182;-82
2024/03/12 11:01:23;;;;;;;7.05;5.47;;;;;;;;;;5866518;28;20045;-82
2024/03/12 11:04:15;;;;;;;7.55;5.28;;;;;;;;;;5865772;28;20128;-82
2024/03/12 11:07:08;;;;;;;6.72;4.82;;;;;;;;;;5865747;28;20064;-82
2024/03/12 11:09:59;;;;;;;12.43;9.68;;;;;;;;;;5866607;28;20041;-82
2024/03/12 11:12:50;;;;;;;8.40;5.82;;;;;;;;;;5865267;28;20057;-83
2024/03/12 11:15:42;;;;;;;9.68;5.68;;;;;;;;;;5864975;28;20422;-84
2024/03/12 11:18:35;;;;;;;10.65;5.15;;;;;;;;;;5848782;28;20045;-84
2024/03/12 11:21:34;;;;;;;6.75;4.82;;;;;;;;;;5864941;28;20053;-84
2024/03/12 11:24:32;;;;;;;11.38;8.50;;;;;;;;;;5865910;28;20053;-84
2024/03/12 11:27:26;;;;;;;13.85;8.45;;;;;;;;;;5866229;28;20122;-84
2024/03/12 11:30:22;;;;;;;28.90;19.23;;;;;;;;;;5864562;28;20060;-84
2024/03/12 11:33:41;;;;;;;8.75;6.50;;;;;;;;;;5865270;28;20064;-84
2024/03/12 11:36:36;;;;;;;7.35;5.40;;;;;;;;;;5880851;28;20188;-84
2024/03/12 11:39:30;;;;;;;8.50;5.40;;;;;;;;;;5864348;28;20046;-84
2024/03/12 11:42:21;;;;;;;12.05;6.10;;;;;;;;;;5864929;28;20081;-84
2024/03/12 11:45:46;;;;;;;8.45;6.00;;;;;;;;;;5864260;28;20057;-84
2024/03/12 11:48:40;;;;;;;12.57;7.57;;;;;;;;;;5865750;28;20134;-84
2024/03/12 11:51:55;;;;;;;8.93;5.40;;;;;;;;;;5864092;28;20041;-84
2024/03/12 11:54:48;;;;;;;8.48;3.88;;;;;;;;;;5865708;28;20124;-84
2024/03/12 11:57:39;;;;;;;13.07;7.80;;;;;;;;;;5880746;28;20041;-84
2024/03/12 12:00:31;;;;;;;8.18;5.13;;;;;;;;;;5863714;28;20052;-84
2024/03/12 12:03:23;;;;;;;12.07;6.53;;;;;;;;;;5865437;28;20053;-84
2024/03/12 12:06:13;;;;;;;8.32;5.93;;;;;;;;;;5863735;28;20064;-84
2024/03/12 12:09:09;;;;;;;5.18;4.07;;;;;;;;;;5865358;28;20443;-84
2024/03/12 12:12:00;;;;;;;9.73;7.30;;;;;;;;;;5864592;28;20057;-84
2024/03/12 12:14:54;;;;;;;8.65;5.05;;;;;;;;;;5863982;28;20049;-84
2024/03/12 12:17:46;;;;;;;7.25;4.20;;;;;;;;;;5863979;28;20044;-84
2024/03/12 12:20:37;;;;;;;7.97;5.55;;;;;;;;;;5865859;28;20423;-83
2024/03/12 12:23:29;;;;;;;9.00;5.40;;;;;;;;;;5864861;28;20046;-84
2024/03/12 12:26:21;;;;;;;9.05;6.35;;;;;;;;;;5865332;28;20447;-84
2024/03/12 12:29:13;;;;;;;6.22;4.85;;;;;;;;;;5864320;28;20049;-83
2024/03/12 12:32:05;;;;;;;9.63;5.97;;;;;;;;;;5864996;28;20474;-83
2024/03/12 12:34:56;;;;;;;21.70;14.38;;;;;;;;;;5863628;28;20131;-84
2024/03/12 12:37:49;;;;;;;9.48;5.15;;;;;;;;;;5863409;28;20071;-84
2024/03/12 12:40:40;;;;;;;4.53;3.83;;;;;;;;;;5863292;28;20041;-84
2024/03/12 12:43:34;;;;;;;7.80;5.22;;;;;;;;;;5863138;28;20049;-83
2024/03/12 12:46:28;;;;;;;4.85;3.97;;;;;;;;;;5879187;28;20038;-84
2024/03/12 12:49:20;;;;;;;5.32;4.75;;;;;;;;;;5863307;28;20503;-84
2024/03/12 12:52:13;;;;;;;6.28;4.10;;;;;;;;;;5830711;28;20053;-83
2024/03/12 12:55:09;;;;;;;18.02;9.70;;;;;;;;;;5863986;28;20060;-84
2024/03/12 12:58:02;;;;;;;6.63;4.13;;;;;;;;;;5862323;28;20057;-83
2024/03/12 13:01:06;;;;;;;7.75;3.95;;;;;;;;;;5862696;28;20052;-84
2024/03/12 13:03:57;;;;;;;6.93;5.03;;;;;;;;;;5862728;28;20124;-83
2024/03/12 13:06:49;;;;;;;28.77;15.68;;;;;;;;;;5862538;28;20041;-84
2024/03/12 13:09:41;;;;;;;21.83;9.20;;;;;;;;;;5864162;28;20471;-84
2024/03/12 13:12:32;;;;;;;30.00;12.93;;;;;;;;;;5862769;28;20561;-84
2024/03/12 13:15:28;;;;;;;14.05;6.45;;;;;;;;;;5859241;28;20048;-84
2024/03/12 13:18:21;;;;;;;58.17;18.00;;;;;;;;;;5875673;28;20502;-84
2024/03/12 13:21:14;;;;;;;15.43;6.03;;;;;;;;;;5854537;28;20046;-84
2024/03/12 13:24:05;;;;;;;6.20;4.43;;;;;;;;;;5835742;28;20143;-83
2024/03/12 13:26:57;;;;;;;15.05;5.63;;;;;;;;;;5843817;28;20050;-84
2024/03/12 13:29:49;;;;;;;8.00;5.45;;;;;;;;;;5861437;28;20452;-84
2024/03/12 13:32:42;;;;;;;10.85;6.63;;;;;;;;;;5862053;28;20053;-84
2024/03/12 13:35:33;;;;;;;8.75;7.05;;;;;;;;;;5861566;28;20095;-84
2024/03/12 13:38:27;;;;;;;17.90;6.72;;;;;;;;;;5850178;28;20427;-84
2024/03/12 13:41:18;;;;;;;10.10;5.38;;;;;;;;;;5838581;28;20046;-84
2024/03/12 13:44:14;;;;;;;13.65;6.45;;;;;;;;;;5838176;28;20053;-84
2024/03/12 13:47:05;;;;;;;11.52;7.20;;;;;;;;;;5839400;28;20100;-83
2024/03/12 13:49:56;;;;;;;9.90;6.75;;;;;;;;;;5854226;28;20415;-84
2024/03/12 13:52:47;;;;;;;8.10;5.07;;;;;;;;;;5838869;28;20060;-84
2024/03/12 13:55:39;;;;;;;9.20;5.47;;;;;;;;;;5838654;28;20041;-84
2024/03/12 13:58:31;;;;;;;5.35;4.82;;;;;;;;;;5838216;28;20060;-84
2024/03/12 14:01:26;;;;;;;5.95;4.80;;;;;;;;;;5822051;28;20385;-84
2024/03/12 14:04:17;;;;;;;8.40;5.35;;;;;;;;;;5855651;28;20060;-84
2024/03/12 14:07:11;;;;;;;10.95;6.47;;;;;;;;;;5841279;28;20052;-83
2024/03/12 14:10:07;;;;;;;12.00;6.50;;;;;;;;;;5844158;28;20107;-82
2024/03/12 14:12:58;;;;;;;12.20;6.38;;;;;;;;;;5860971;28;20064;-83
2024/03/12 14:15:49;;;;;;;11.40;5.68;;;;;;;;;;5866894;28;20049;-83
2024/03/12 14:18:52;;;;;;;6.72;5.10;;;;;;;;;;5835935;28;20049;-83
2024/03/12 14:21:46;;;;;;;11.68;6.40;;;;;;;;;;5858041;28;20416;-83
2024/03/12 14:24:37;;;;;;;8.70;5.63;;;;;;;;;;5861071;28;20049;-83
2024/03/12 14:27:27;;;;;;;9.23;6.28;;;;;;;;;;5867529;28;20052;-83
2024/03/12 14:30:19;;;;;;;11.40;6.28;;;;;;;;;;5871086;28;20056;-83
2024/03/12 14:33:09;;;;;;;7.65;5.30;;;;;;;;;;5861710;28;20053;-83
2024/03/12 14:36:00;;;;;;;8.75;6.40;;;;;;;;;;5845516;28;20100;-83
2024/03/12 14:38:51;;;;;;;9.77;5.85;;;;;;;;;;5843010;28;20515;-83
2024/03/12 14:41:44;;;;;;;7.18;5.38;;;;;;;;;;5838888;28;20045;-83
2024/03/12 14:44:35;;;;;;;7.30;5.18;;;;;;;;;;5836383;28;20084;-83
2024/03/12 14:47:26;;;;;;;11.35;4.28;;;;;;;;;;5837179;28;20492;-83
2024/03/12 14:50:17;;;;;;;5.97;5.07;;;;;;;;;;5836016;28;20119;-83
2024/03/12 14:53:08;;;;;;;8.05;4.60;;;;;;;;;;5837094;28;20054;-83
2024/03/12 14:56:01;;;;;;;7.00;6.30;;;;;;;;;;5837515;28;20128;-83
2024/03/12 14:58:52;;;;;;;26.27;8.70;;;;;;;;;;5859798;28;20072;-83
2024/03/12 15:01:44;;;;;;;8.55;4.90;;;;;;;;;;5860593;28;20049;-83
2024/03/12 15:04:35;;;;;;;4.47;3.38;;;;;;;;;;5860855;28;20136;-83
2024/03/12 15:07:26;;;;;;;4.90;3.55;;;;;;;;;;5861121;28;20045;-83
2024/03/12 15:10:17;;;;;;;7.13;4.03;;;;;;;;;;5860916;28;20049;-83
2024/03/12 15:13:08;;;;;;;30.33;18.60;;;;;;;;;;5844541;28;20053;-83
2024/03/12 15:15:59;;;;;;;19.23;8.75;;;;;;;;;;5862725;28;20422;-83
2024/03/12 15:18:52;;;;;;;8.35;4.50;;;;;;;;;;5844696;28;20100;-82
2024/03/12 15:21:43;;;;;;;22.50;13.90;;;;;;;;;;5862159;28;20045;-83
2024/03/12 15:24:35;;;;;;;25.65;15.75;;;;;;;;;;5866888;28;20128;-83
2024/03/12 15:27:29;;;;;;;11.93;6.53;;;;;;;;;;5866384;28;20452;-83
2024/03/12 15:30:21;;;;;;;6.65;3.70;;;;;;;;;;5848915;28;20400;-83
2024/03/12 15:33:13;;;;;;;7.15;3.10;;;;;;;;;;5866075;28;20054;-83
2024/03/12 15:36:05;;;;;;;4.05;2.85;;;;;;;;;;5864297;28;20045;-83
2024/03/12 15:38:55;;;;;;;4.75;2.47;;;;;;;;;;5865540;28;20124;-83
2024/03/12 15:41:47;;;;;;;4.90;3.70;;;;;;;;;;5864693;28;20559;-82
2024/03/12 15:44:37;;;;;;;4.82;3.33;;;;;;;;;;5864338;28;20121;-83
2024/03/12 15:47:39;;;;;;;6.35;3.80;;;;;;;;;;5864509;28;20041;-83
2024/03/12 15:50:31;;;;;;;5.72;3.95;;;;;;;;;;5849414;28;20625;-83
2024/03/12 15:53:23;;;;;;;6.80;3.00;;;;;;;;;;5864114;28;20048;-83
2024/03/12 15:56:14;;;;;;;6.78;4.80;;;;;;;;;;5865620;28;20046;-83
2024/03/12 15:59:06;;;;;;;17.20;11.10;;;;;;;;;;5864347;28;20523;-83
2024/03/12 16:01:58;;;;;;;6.55;4.55;;;;;;;;;;5848697;28;20072;-83
2024/03/12 16:04:49;;;;;;;7.72;6.35;;;;;;;;;;5864173;28;20048;-83
2024/03/12 16:07:40;;;;;;;4.90;3.65;;;;;;;;;;5847797;28;20522;-83
2024/03/12 16:10:33;;;;;;;19.10;10.43;;;;;;;;;;5847635;28;20042;-83
2024/03/12 16:13:23;;;;;;;35.97;21.17;;;;;;;;;;5848042;28;20048;-83
2024/03/12 16:16:14;;;;;;;22.67;13.25;;;;;;;;;;5847483;28;20045;-83
2024/03/12 16:19:06;;;;;;;28.45;10.20;;;;;;;;;;5863839;28;20053;-83
2024/03/12 16:22:00;;;;;;;10.30;8.00;;;;;;;;;;5865586;28;20145;-84
2024/03/12 16:24:51;;;;;;;5.75;4.55;;;;;;;;;;5863915;28;20042;-85
2024/03/12 16:27:45;;;;;;;8.65;6.60;;;;;;;;;;5864786;28;20049;-84
2024/03/12 16:30:37;;;;;;;16.30;7.40;;;;;;;;;;5863486;28;20041;-85
2024/03/12 16:33:29;;;;;;;9.13;8.18;;;;;;;;;;5864455;28;20482;-85
2024/03/12 16:36:20;;;;;;;9.57;7.55;;;;;;;;;;5863166;28;20499;-85
2024/03/12 16:39:13;;;;;;;13.40;6.32;;;;;;;;;;5864793;28;20373;-85
2024/03/12 16:42:04;;;;;;;11.85;6.18;;;;;;;;;;5847109;28;20128;-85
2024/03/12 16:44:55;;;;;;;7.15;4.18;;;;;;;;;;5863877;28;20060;-85
2024/03/12 16:47:46;;;;;;;10.02;6.20;;;;;;;;;;5864528;28;20045;-85
2024/03/12 16:50:37;;;;;;;8.23;5.22;;;;;;;;;;5863098;28;20049;-86
2024/03/12 16:53:30;;;;;;;6.03;4.68;;;;;;;;;;5864166;28;20064;-85
2024/03/12 16:56:21;;;;;;;5.57;3.88;;;;;;;;;;5863077;28;20499;-85
2024/03/12 16:59:16;;;;;;;8.05;5.55;;;;;;;;;;5864640;28;20050;-85
2024/03/12 17:02:08;;;;;;;10.40;5.65;;;;;;;;;;5864246;28;20057;-85
2024/03/12 17:05:00;;;;;;;7.88;5.00;;;;;;;;;;5863319;28;20084;-85
2024/03/12 17:07:55;;;;;;;11.98;6.43;;;;;;;;;;5862915;28;20049;-85
2024/03/12 17:10:47;;;;;;;11.40;6.97;;;;;;;;;;5863919;28;20116;-85